Flight Track Log - Related Links

Times and Time Zones

All times are in EDT time to prevent confusion due to time zone crossing. See the AAL119 flight status page for this flight to view local times or setup timezone preferences in your user account.

Time Position Orientation Groundspeed Altitude Reporting Facility
EDT Latitude Longitude Course Direction KTS MPH feet Rate Location/Type
Tue 06:49:19 PM 40.7333 -74.1333 270° West 185 213 2,000  Level New York TRACON
Tue 06:50:19 PM 40.7667 -74.2000 303° West 274 315 3,600 2,200 Climbing New York TRACON
Tue 06:51:19 PM 40.7667 -74.3000 270° West 275 316 6,400 2,600 Climbing New York TRACON
Tue 06:52:19 PM 40.7500 -74.4000 258° West 286 329 8,800 2,012 Climbing New York TRACON
Tue 06:54:00 PM 40.6833 -74.9718 270° West  Level FlightAware Approximate
Tue 06:54:03 PM 40.7314 -74.5831 262° West 334 384 11,900  Level New York Center
Tue 06:55:03 PM 40.7214 -74.6919 263° West 340 391 14,200 2,311 Climbing New York Center
Tue 06:56:05 PM 40.7083 -74.8364 263° West 351 404 16,600 2,213 Climbing New York Center
Tue 06:57:05 PM 40.6953 -74.9697 263° West 369 425 18,700 1,881 Climbing New York Center
Tue 06:58:03 PM 40.6786 -75.0864 259° West 369 425 20,300 1,780 Climbing New York Center
Tue 06:59:03 PM 40.6217 -75.2139 240° Southwest 377 434 22,200 1,850 Climbing New York Center
Tue 07:00:03 PM 40.5625 -75.3442 239° Southwest 398 458 24,000 1,525 Climbing New York Center
Tue 07:01:05 PM 40.5011 -75.4764 239° Southwest 411 473 25,300 1,289 Climbing New York Center
Tue 07:02:04 PM 40.4372 -75.6139 239° Southwest 431 496 26,600 1,361 Climbing New York Center
Tue 07:03:04 PM 40.3731 -75.7539 239° Southwest 441 507 28,000 1,686 Climbing New York Center
Tue 07:04:05 PM 40.2997 -75.9064 238° Southwest 457 526 30,000 1,664 Climbing New York Center
Tue 07:05:03 PM 40.2356 -76.0403 238° Southwest 457 526 31,300 1,068 Climbing New York Center
Tue 07:06:03 PM 40.1750 -76.1797 240° Southwest 457 526 32,100 893 Climbing New York Center
Tue 07:07:04 PM 40.1131 -76.3025 237° Southwest 457 526 33,100 1,000 Climbing New York Center
Tue 07:08:03 PM 40.0500 -76.4439 240° Southwest 452 520 34,100 1,109 Climbing New York Center
Tue 07:09:03 PM 39.9850 -76.5822 239° Southwest 452 520 35,300 893 Climbing New York Center
Tue 07:10:04 PM 39.9242 -76.7153 239° Southwest 452 520 35,900 -227 Climbing New York Center
Tue 07:12:34 PM 39.7547 -77.0650 238° Southwest 449 517 34,500 -686 Descending Washington Center
Tue 07:13:34 PM 39.6967 -77.1961 240° Southwest 437 503 33,500 -950 Descending Washington Center
Tue 07:14:34 PM 39.6367 -77.3242 239° Southwest 432 497 32,600 -750 Descending Washington Center
Tue 07:15:34 PM 39.5764 -77.4492 238° Southwest 421 484 32,000 -300 Descending Washington Center
Tue 07:16:34 PM 39.5161 -77.5742 238° Southwest 421 484 32,000  Level Washington Center
Tue 07:17:34 PM 39.4578 -77.6989 239° Southwest 421 484 32,000  Level Washington Center
Tue 07:18:34 PM 39.3972 -77.8233 238° Southwest 421 484 32,000  Level Washington Center
Tue 07:19:34 PM 39.3492 -77.9400 242° Southwest 421 484 32,000  Level Washington Center
Tue 07:20:34 PM 39.2986 -78.0669 243° Southwest 409 471 32,000  Level Washington Center
Tue 07:21:34 PM 39.2481 -78.1939 243° Southwest 404 465 32,000  Level Washington Center
Tue 07:22:34 PM 39.1972 -78.3233 243° Southwest 404 465 32,000  Level Washington Center
Tue 07:23:34 PM 39.1464 -78.4500 243° Southwest 404 465 32,000  Level Washington Center
Tue 07:24:34 PM 39.0953 -78.5736 242° Southwest 404 465 32,000  Level Washington Center
Tue 07:25:34 PM 39.0419 -78.7053 242° Southwest 404 465 32,000  Level Washington Center
Tue 07:26:34 PM 38.9928 -78.8339 244° Southwest 404 465 32,000  Level Washington Center
Tue 07:27:34 PM 38.9414 -78.9597 242° Southwest 404 465 32,000  Level Washington Center
Tue 07:28:34 PM 38.8875 -79.0881 242° Southwest 404 465 32,000  Level Washington Center
Tue 07:29:34 PM 38.8400 -79.2164 245° Southwest 404 465 32,000  Level Washington Center
Tue 07:30:34 PM 38.8150 -79.3536 257° West 398 458 32,000  Level Washington Center
Tue 07:31:34 PM 38.7897 -79.4908 257° West 398 458 32,000  Level Washington Center
Tue 07:32:34 PM 38.7614 -79.6519 257° West 404 465 32,000  Level Washington Center
Tue 07:33:34 PM 38.7358 -79.7889 257° West 411 473 32,000  Level Washington Center
Tue 07:34:34 PM 38.7128 -79.9153 257° West 411 473 32,000  Level Washington Center
Tue 07:36:49 PM 38.6517 -80.2247 256° West 401 461 32,000  Level Indianapolis Center
Tue 07:37:51 PM 38.6264 -80.3622 257° West 398 458 32,000  Level Indianapolis Center
Tue 07:38:52 PM 38.6006 -80.4997 257° West 397 457 32,000  Level Indianapolis Center
Tue 07:39:54 PM 38.5739 -80.6367 256° West 395 455 32,000  Level Indianapolis Center
Tue 07:40:56 PM 38.5475 -80.7758 256° West 400 460 32,000  Level Indianapolis Center
Tue 07:41:58 PM 38.5206 -80.9142 256° West 400 460 32,000  Level Indianapolis Center
Tue 07:42:59 PM 38.4869 -81.0822 256° West 404 465 32,000  Level Indianapolis Center
Tue 07:44:01 PM 38.4592 -81.2222 256° West 404 465 32,000  Level Indianapolis Center
Tue 07:45:03 PM 38.4314 -81.3617 256° West 402 463 32,000  Level Indianapolis Center
Tue 07:46:04 PM 38.4042 -81.5014 256° West 401 461 32,000  Level Indianapolis Center
Tue 07:47:06 PM 38.3758 -81.6411 256° West 403 464 32,000  Level Indianapolis Center
Tue 07:48:08 PM 38.3481 -81.7789 256° West 400 460 32,000  Level Indianapolis Center
Tue 07:49:09 PM 38.3106 -81.9117 250° West 398 458 32,000  Level Indianapolis Center
Tue 07:50:11 PM 38.2731 -82.0464 251° West 401 461 32,000  Level Indianapolis Center
Tue 07:51:13 PM 38.2356 -82.1789 250° West 400 460 32,000  Level Indianapolis Center
Tue 07:52:15 PM 38.1972 -82.3136 250° West 403 464 32,000  Level Indianapolis Center
Tue 07:53:16 PM 38.1514 -82.4767 250° West 406 467 32,000  Level Indianapolis Center
Tue 07:54:18 PM 38.1167 -82.5981 250° West 408 470 32,000  Level Indianapolis Center
Tue 07:55:20 PM 38.0706 -82.7519 249° West 403 464 32,000  Level Indianapolis Center
Tue 07:56:21 PM 38.0325 -82.8847 250° West 402 463 32,000  Level Indianapolis Center
Tue 07:57:23 PM 37.9942 -83.0189 250° West 404 465 32,000  Level Indianapolis Center
Tue 07:58:24 PM 37.9553 -83.1517 250° West 403 464 32,000  Level Indianapolis Center
Tue 07:59:26 PM 37.9161 -83.2831 249° West 401 461 32,000  Level Indianapolis Center
Tue 08:00:28 PM 37.8767 -83.4156 249° West 402 463 32,000  Level Indianapolis Center
Tue 08:01:29 PM 37.8378 -83.5483 250° West 404 465 32,000  Level Indianapolis Center
Tue 08:02:31 PM 37.7925 -83.7008 249° West 398 458 32,000  Level Indianapolis Center
Tue 08:03:33 PM 37.7528 -83.8314 249° West 397 457 32,000  Level Indianapolis Center
Tue 08:04:34 PM 37.7136 -83.9600 249° West 394 453 32,000  Level Indianapolis Center
Tue 08:05:36 PM 37.6736 -84.0917 249° West 401 461 32,000  Level Indianapolis Center
Tue 08:06:37 PM 37.6333 -84.2225 249° West 402 463 32,000 -49 Level Indianapolis Center
Tue 08:07:39 PM 37.5933 -84.3528 249° West 401 461 31,900  Descending Indianapolis Center
Tue 08:08:41 PM 37.5467 -84.5044 249° West 399 459 32,000 49 Climbing Indianapolis Center
Tue 08:09:42 PM 37.5075 -84.6350 249° West 396 456 32,000  Level Indianapolis Center
Tue 08:10:44 PM 37.4667 -84.7647 248° West 398 458 32,000  Level Indianapolis Center
Tue 08:11:45 PM 37.4264 -84.8942 249° West 397 457 32,000  Level Indianapolis Center
Tue 08:12:47 PM 37.3856 -85.0253 249° West 401 461 32,000  Level Indianapolis Center
Tue 08:13:49 PM 37.3447 -85.1553 248° West 399 459 32,000  Level Indianapolis Center
Tue 08:14:50 PM 37.3017 -85.2869 248° West 405 466 32,000  Level Indianapolis Center
Tue 08:15:52 PM 37.2542 -85.4406 249° West 405 466 32,000  Level Indianapolis Center
Tue 08:16:53 PM 37.2111 -85.5744 248° West 407 468 32,000 632 Level Indianapolis Center
Tue 08:17:46 PM 37.1775 -85.6892 250° West 400 460 33,200 1,168 Climbing Memphis Center
Tue 08:18:46 PM 37.1339 -85.8114 246° West 392 451 34,200 1,050 Climbing Memphis Center
Tue 08:19:46 PM 37.0928 -85.9411 248° West 397 457 35,300 900 Climbing Memphis Center
Tue 08:20:46 PM 37.0533 -86.0628 248° West 397 457 36,000 350 Climbing Memphis Center
Tue 08:21:46 PM 37.0117 -86.1847 247° West 397 457 36,000  Level Memphis Center
Tue 08:22:46 PM 36.9722 -86.3114 249° West 397 457 36,000  Level Memphis Center
Tue 08:23:46 PM 36.9361 -86.4222 248° West 392 451 36,000  Level Memphis Center
Tue 08:24:46 PM 36.9108 -86.5506 256° West 392 451 36,000  Level Memphis Center
Tue 08:25:46 PM 36.8897 -86.6786 258° West 378 435 36,000  Level Memphis Center
Tue 08:26:46 PM 36.8728 -86.8064 261° West 378 435 36,000  Level Memphis Center
Tue 08:27:46 PM 36.8492 -86.9372 257° West 378 435 36,000  Level Memphis Center
Tue 08:28:46 PM 36.8297 -87.0678 259° West 378 435 36,000  Level Memphis Center
Tue 08:29:46 PM 36.8081 -87.1928 258° West 373 429 36,000  Level Memphis Center
Tue 08:30:46 PM 36.7842 -87.3208 257° West 378 435 36,000  Level Memphis Center
Tue 08:31:46 PM 36.7622 -87.4511 258° West 378 435 36,000  Level Memphis Center
Tue 08:32:46 PM 36.7425 -87.5814 259° West 378 435 36,000  Level Memphis Center
Tue 08:33:46 PM 36.7181 -87.7117 257° West 378 435 36,000  Level Memphis Center
Tue 08:34:46 PM 36.6958 -87.8469 258° West 373 429 36,000  Level Memphis Center
Tue 08:35:46 PM 36.6736 -87.9769 258° West 373 429 36,000  Level Memphis Center
Tue 08:36:46 PM 36.6508 -88.1042 257° West 373 429 36,000  Level Memphis Center
Tue 08:37:46 PM 36.6303 -88.2317 259° West 373 429 36,000  Level Memphis Center
Tue 08:38:46 PM 36.6072 -88.3589 257° West 373 429 36,000  Level Memphis Center
Tue 08:39:46 PM 36.5822 -88.4833 256° West 373 429 36,000  Level Memphis Center
Tue 08:40:46 PM 36.5611 -88.6106 258° West 373 429 36,000  Level Memphis Center
Tue 08:41:46 PM 36.5378 -88.7350 257° West 373 429 36,000  Level Memphis Center
Tue 08:42:46 PM 36.5142 -88.8569 256° West 373 429 36,000  Level Memphis Center
Tue 08:43:46 PM 36.4928 -88.9811 258° West 373 429 36,000  Level Memphis Center
Tue 08:44:46 PM 36.4711 -89.1003 257° West 373 429 36,000  Level Memphis Center
Tue 08:45:46 PM 36.4494 -89.2244 258° West 373 429 36,000  Level Memphis Center
Tue 08:46:46 PM 36.4256 -89.3536 257° West 373 429 36,000  Level Memphis Center
Tue 08:47:46 PM 36.4014 -89.4753 256° West 372 428 36,000  Level Memphis Center
Tue 08:48:46 PM 36.3772 -89.5967 256° West 394 453 36,000  Level Memphis Center
Tue 08:49:46 PM 36.3528 -89.7206 256° West 387 445 36,000  Level Memphis Center
Tue 08:50:46 PM 36.3283 -89.8444 256° West 381 438 36,000  Level Memphis Center
Tue 08:51:46 PM 36.3039 -89.9733 257° West 381 438 36,000  Level Memphis Center
Tue 08:52:46 PM 36.2792 -90.0969 256° West 381 438 36,000  Level Memphis Center
Tue 08:53:46 PM 36.2544 -90.2231 256° West 376 433 36,000  Level Memphis Center
Tue 08:54:46 PM 36.2294 -90.3442 256° West 371 427 36,000  Level Memphis Center
Tue 08:55:46 PM 36.2064 -90.4675 257° West 371 427 36,000  Level Memphis Center
Tue 08:56:46 PM 36.1792 -90.5911 255° West 371 427 36,000  Level Memphis Center
Tue 08:57:46 PM 36.1581 -90.7117 258° West 371 427 36,000  Level Memphis Center
Tue 08:58:46 PM 36.1306 -90.8350 255° West 371 427 36,000  Level Memphis Center
Tue 08:59:46 PM 36.1114 -90.9506 258° West 366 421 36,000  Level Memphis Center
Tue 09:00:46 PM 36.1108 -91.0739 270° West 366 421 36,000  Level Memphis Center
Tue 09:01:46 PM 36.1161 -91.1947 273° West 360 414 36,000  Level Memphis Center
Tue 09:02:46 PM 36.1217 -91.3206 273° West 360 414 36,000  Level Memphis Center
Tue 09:03:46 PM 36.1228 -91.4439 271° West 365 420 36,000  Level Memphis Center
Tue 09:04:46 PM 36.1278 -91.5647 273° West 365 420 36,000  Level Memphis Center
Tue 09:05:46 PM 36.1308 -91.6856 272° West 365 420 36,000  Level Memphis Center
Tue 09:06:46 PM 36.1356 -91.8089 273° West 365 420 36,000  Level Memphis Center
Tue 09:07:46 PM 36.1403 -91.9453 272° West 365 420 36,000  Level Memphis Center
Tue 09:08:46 PM 36.1469 -92.0689 274° West 365 420 36,000  Level Memphis Center
Tue 09:09:46 PM 36.1494 -92.1897 272° West 365 420 36,000  Level Memphis Center
Tue 09:10:46 PM 36.1539 -92.3081 273° West 365 420 36,000  Level Memphis Center
Tue 09:11:46 PM 36.1561 -92.4314 271° West 365 420 36,000  Level Memphis Center
Tue 09:12:46 PM 36.1581 -92.5550 271° West 365 420 36,000  Level Memphis Center
Tue 09:13:46 PM 36.1622 -92.6758 272° West 365 420 36,000  Level Memphis Center
Tue 09:14:46 PM 36.1639 -92.7967 271° West 365 420 36,000  Level Memphis Center
Tue 09:15:46 PM 36.1700 -92.9203 274° West 365 420 36,000  Level Memphis Center
Tue 09:16:46 PM 36.1714 -93.0411 271° West 365 420 36,000  Level Memphis Center
Tue 09:17:46 PM 36.1733 -93.1519 271° West 365 420 36,000  Level Memphis Center
Tue 09:18:46 PM 36.1747 -93.2728 271° West 365 420 36,000  Level Memphis Center
Tue 09:19:46 PM 36.1781 -93.3911 272° West 360 414 36,000  Level Memphis Center
Tue 09:20:46 PM 36.1794 -93.5094 271° West 354 407 36,000  Level Memphis Center
Tue 09:21:46 PM 36.1806 -93.6278 271° West 349 402 36,000  Level Memphis Center
Tue 09:22:46 PM 36.1856 -93.7489 273° West 349 402 36,000  Level Memphis Center
Tue 09:23:46 PM 36.1864 -93.8672 271° West 349 402 36,000  Level Memphis Center
Tue 09:24:46 PM 36.1872 -93.9881 271° West 349 402 36,000  Level Memphis Center
Tue 09:25:46 PM 36.1878 -94.1089 270° West 349 402 36,000  Level Memphis Center
Tue 09:27:32 PM 36.1917 -94.3186 271° West 350 403 36,000  Level Kansas City Center
Tue 09:28:35 PM 36.1919 -94.4389 270° West 349 402 36,000  Level Kansas City Center
Tue 09:29:36 PM 36.1931 -94.5567 271° West 344 396 36,000  Level Kansas City Center
Tue 09:30:38 PM 36.1936 -94.6764 270° West 346 398 36,000  Level Kansas City Center
Tue 09:31:39 PM 36.1944 -94.7964 271° West 346 398 36,000  Level Kansas City Center
Tue 09:32:41 PM 36.1953 -94.9400 270° West 346 398 36,000  Level Kansas City Center
Tue 09:33:41 PM 36.1953 -95.0597 270° West 347 399 36,000  Level Kansas City Center
Tue 09:34:42 PM 36.1956 -95.1633 270° West 347 399 36,000  Level Kansas City Center
Tue 09:35:44 PM 36.1967 -95.2831 271° West 348 400 36,000  Level Kansas City Center
Tue 09:36:46 PM 36.1958 -95.4258 270° West 348 400 36,000  Level Kansas City Center
Tue 09:37:48 PM 36.1967 -95.5442 271° West 346 398 36,000  Level Kansas City Center
Tue 09:38:47 PM 36.1978 -95.6606 271° West 343 395 36,000  Level Kansas City Center
Tue 09:39:50 PM 36.1961 -95.7817 269° West 344 396 36,000  Level Kansas City Center
Tue 09:40:50 PM 36.2019 -95.9000 274° West 342 394 36,000  Level Kansas City Center
Tue 09:41:51 PM 36.2092 -96.0175 274° West 341 392 36,000  Level Kansas City Center
Tue 09:42:54 PM 36.2144 -96.1358 273° West 343 395 36,000  Level Kansas City Center
Tue 09:43:55 PM 36.2208 -96.2528 274° West 340 391 36,000  Level Kansas City Center
Tue 09:44:56 PM 36.2261 -96.3722 273° West 343 395 36,000  Level Kansas City Center
Tue 09:45:55 PM 36.2322 -96.4908 274° West 344 396 36,000  Level Kansas City Center
Tue 09:46:58 PM 36.2381 -96.6086 274° West 343 395 36,000  Level Kansas City Center
Tue 09:47:57 PM 36.2436 -96.7281 273° West 345 397 36,000  Level Kansas City Center
Tue 09:49:01 PM 36.2494 -96.8600 273° West 345 397 36,000  Level Kansas City Center
Tue 09:50:01 PM 36.2542 -96.9772 273° West 344 396 36,000  Level Kansas City Center
Tue 09:51:03 PM 36.2594 -97.0942 273° West 342 394 36,000  Level Kansas City Center
Tue 09:52:03 PM 36.2642 -97.2111 273° West 342 394 36,000  Level Kansas City Center
Tue 09:53:05 PM 36.2700 -97.3278 274° West 341 392 36,000  Level Kansas City Center
Tue 09:54:06 PM 36.2736 -97.4444 272° West 341 392 36,000  Level Kansas City Center
Tue 09:55:08 PM 36.2789 -97.5839 273° West 340 391 36,000  Level Kansas City Center
Tue 09:56:08 PM 36.2842 -97.7003 273° West 339 390 36,000  Level Kansas City Center
Tue 09:57:10 PM 36.2869 -97.8175 272° West 341 392 36,000  Level Kansas City Center
Tue 09:58:11 PM 36.2919 -97.9417 273° West 345 397 36,000  Level Kansas City Center
Tue 09:59:12 PM 36.2961 -98.0617 273° West 348 400 36,000  Level Kansas City Center
Tue 10:00:13 PM 36.3000 -98.1822 272° West 349 402 36,000  Level Kansas City Center
Tue 10:01:12 PM 36.3039 -98.3028 272° West 349 402 36,000  Level Kansas City Center
Tue 10:02:14 PM 36.3075 -98.4236 272° West 349 402 36,000  Level Kansas City Center
Tue 10:03:15 PM 36.3114 -98.5433 272° West 349 402 36,000  Level Kansas City Center
Tue 10:04:16 PM 36.3144 -98.6622 272° West 346 398 36,000  Level Kansas City Center
Tue 10:05:19 PM 36.3172 -98.7800 272° West 343 395 36,000  Level Kansas City Center
Tue 10:06:20 PM 36.3208 -98.8978 272° West 343 395 36,000  Level Kansas City Center
Tue 10:07:21 PM 36.3247 -99.0147 272° West 342 394 36,000  Level Kansas City Center
Tue 10:08:23 PM 36.3278 -99.1564 272° West 344 396 36,000  Level Kansas City Center
Tue 10:09:24 PM 36.3311 -99.2742 272° West 344 396 36,000  Level Kansas City Center
Tue 10:10:24 PM 36.3331 -99.3914 271° West 343 395 36,000  Level Kansas City Center
Tue 10:11:24 PM 36.3358 -99.5081 272° West 341 392 36,000  Level Kansas City Center
Tue 10:12:26 PM 36.3389 -99.6244 272° West 339 390 36,000  Level Kansas City Center
Tue 10:13:28 PM 36.3417 -99.7411 272° West 338 389 36,000  Level Kansas City Center
Tue 10:14:30 PM 36.3442 -99.8594 272° West 341 392 36,000  Level Kansas City Center
Tue 10:15:32 PM 36.3336 -99.9758 264° West 341 392 36,000  Level Kansas City Center
Tue 10:16:32 PM 36.3214 -100.0928 263° West 342 394 36,000  Level Kansas City Center
Tue 10:17:33 PM 36.3078 -100.2114 262° West 345 397 36,000  Level Kansas City Center
Tue 10:18:34 PM 36.2922 -100.3544 262° West 348 400 36,000  Level Kansas City Center
Tue 10:19:06 PM 36.2869 -100.4011 262° West 346 398 36,000  Level Albuquerque Center
Tue 10:20:07 PM 36.2731 -100.5192 262° West 345 397 36,000  Level Albuquerque Center
Tue 10:21:09 PM 36.2569 -100.6617 262° West 348 400 36,000  Level Albuquerque Center
Tue 10:22:10 PM 36.2422 -100.7800 261° West 348 400 36,000  Level Albuquerque Center
Tue 10:23:11 PM 36.2289 -100.9003 262° West 351 404 36,000  Level Albuquerque Center
Tue 10:24:13 PM 36.2150 -101.0197 262° West 351 404 36,000  Level Albuquerque Center
Tue 10:25:14 PM 36.2008 -101.1417 262° West 355 409 36,000  Level Albuquerque Center
Tue 10:26:15 PM 36.1875 -101.2528 262° West 350 403 36,000  Level Albuquerque Center
Tue 10:27:16 PM 36.1739 -101.3725 262° West 352 405 36,000  Level Albuquerque Center
Tue 10:28:17 PM 36.1569 -101.5156 262° West 352 405 36,000  Level Albuquerque Center
Tue 10:29:19 PM 36.1419 -101.6317 261° West 348 400 36,000  Level Albuquerque Center
Tue 10:30:20 PM 36.1275 -101.7492 261° West 348 400 36,000  Level Albuquerque Center
Tue 10:31:21 PM 36.1128 -101.8669 261° West 348 400 36,000  Level Albuquerque Center
Tue 10:32:22 PM 36.0978 -101.9847 261° West 349 402 36,000  Level Albuquerque Center
Tue 10:33:24 PM 36.0833 -102.1039 262° West 352 405 36,000  Level Albuquerque Center
Tue 10:34:25 PM 36.0675 -102.2233 261° West 353 406 36,000  Level Albuquerque Center
Tue 10:35:26 PM 36.0533 -102.3417 262° West 352 405 36,000  Level Albuquerque Center
Tue 10:36:27 PM 36.0367 -102.4606 260° West 353 406 36,000  Level Albuquerque Center
Tue 10:37:28 PM 36.0175 -102.6053 261° West 356 410 36,000  Level Albuquerque Center
Tue 10:38:29 PM 36.0022 -102.7272 261° West 360 414 36,000  Level Albuquerque Center
Tue 10:39:31 PM 35.9858 -102.8478 260° West 359 413 36,000  Level Albuquerque Center
Tue 10:40:32 PM 35.9706 -102.9619 261° West 360 414 36,000  Level Albuquerque Center
Tue 10:41:33 PM 35.9533 -103.0839 260° West 359 413 36,000  Level Albuquerque Center
Tue 10:42:34 PM 35.9372 -103.2064 261° West 359 413 36,000 -295 Level Albuquerque Center
Tue 10:43:35 PM 35.9183 -103.3506 261° West 362 417 35,400 -787 Descending Albuquerque Center
Tue 10:44:36 PM 35.9000 -103.4725 260° West 361 415 34,400 -683 Descending Albuquerque Center
Tue 10:45:38 PM 35.8853 -103.5919 261° West 354 407 34,000 -195 Descending Albuquerque Center
Tue 10:46:39 PM 35.8692 -103.7044 260° West 339 390 34,000  Level Albuquerque Center
Tue 10:47:40 PM 35.8519 -103.8214 260° West 341 392 34,000  Level Albuquerque Center
Tue 10:48:41 PM 35.8358 -103.9364 260° West 340 391 34,000  Level Albuquerque Center
Tue 10:49:42 PM 35.8194 -104.0528 260° West 343 395 34,000  Level Albuquerque Center
Tue 10:50:43 PM 35.8025 -104.1675 260° West 341 392 34,000  Level Albuquerque Center
Tue 10:51:44 PM 35.7853 -104.2817 259° West 339 390 34,000  Level Albuquerque Center
Tue 10:52:45 PM 35.7686 -104.3942 260° West 335 386 34,000  Level Albuquerque Center
Tue 10:53:47 PM 35.7522 -104.5089 260° West 338 389 34,000  Level Albuquerque Center
Tue 10:54:48 PM 35.7350 -104.6222 259° West 336 387 34,000  Level Albuquerque Center
Tue 10:55:49 PM 35.7183 -104.7336 260° West 332 382 34,000  Level Albuquerque Center
Tue 10:56:50 PM 35.7022 -104.8442 260° West 328 377 34,000  Level Albuquerque Center
Tue 10:57:51 PM 35.6811 -104.9725 259° West 327 376 34,000  Level Albuquerque Center
Tue 10:58:52 PM 35.6658 -105.0817 260° West 324 373 34,000  Level Albuquerque Center
Tue 10:59:53 PM 35.6486 -105.1903 259° West 323 372 34,000  Level Albuquerque Center
Tue 11:00:55 PM 35.6300 -105.3006 258° West 325 374 34,000  Level Albuquerque Center
Tue 11:01:56 PM 35.6139 -105.4106 260° West 326 375 34,000  Level Albuquerque Center
Tue 11:02:57 PM 35.5961 -105.5219 259° West 329 379 34,000  Level Albuquerque Center
Tue 11:03:58 PM 35.5789 -105.6347 259° West 332 382 34,000  Level Albuquerque Center
Tue 11:04:59 PM 35.5608 -105.7481 259° West 334 384 34,000  Level Albuquerque Center
Tue 11:06:00 PM 35.5439 -105.8578 259° West 328 377 34,000  Level Albuquerque Center
Tue 11:07:01 PM 35.5269 -105.9586 258° West 334 384 34,000  Level Albuquerque Center
Tue 11:08:03 PM 35.5064 -106.0928 259° West 335 386 34,000  Level Albuquerque Center
Tue 11:09:04 PM 35.4875 -106.2053 258° West 336 387 34,000  Level Albuquerque Center
Tue 11:10:05 PM 35.4686 -106.3222 259° West 346 398 34,000  Level Albuquerque Center
Tue 11:11:06 PM 35.4500 -106.4361 259° West 345 397 34,000  Level Albuquerque Center
Tue 11:12:08 PM 35.4308 -106.5519 259° West 346 398 34,000  Level Albuquerque Center
Tue 11:13:09 PM 35.4106 -106.6711 258° West 355 409 34,000  Level Albuquerque Center
Tue 11:14:10 PM 35.3914 -106.7881 259° West 355 409 34,000  Level Albuquerque Center
Tue 11:15:12 PM 35.3672 -106.9225 258° West 354 407 34,000  Level Albuquerque Center
Tue 11:16:13 PM 35.3486 -107.0322 258° West 345 397 34,000  Level Albuquerque Center
Tue 11:17:14 PM 35.3272 -107.1611 259° West 346 398 34,000  Level Albuquerque Center
Tue 11:18:15 PM 35.3081 -107.2714 258° West 350 403 34,000  Level Albuquerque Center
Tue 11:19:17 PM 35.2883 -107.3864 258° West 348 400 34,000  Level Albuquerque Center
Tue 11:20:17 PM 35.2758 -107.5144 263° West 348 400 34,000  Level Albuquerque Center
Tue 11:21:19 PM 35.2636 -107.6281 263° West 350 403 34,000  Level Albuquerque Center
Tue 11:22:20 PM 35.2517 -107.7394 263° West 347 399 34,000  Level Albuquerque Center
Tue 11:23:21 PM 35.2378 -107.8686 263° West 344 396 34,000  Level Albuquerque Center
Tue 11:24:23 PM 35.2269 -107.9786 263° West 342 394 34,000  Level Albuquerque Center
Tue 11:25:24 PM 35.2128 -108.1078 262° West 342 394 34,000  Level Albuquerque Center
Tue 11:26:25 PM 35.2008 -108.2206 263° West 346 398 34,000  Level Albuquerque Center
Tue 11:27:26 PM 35.1875 -108.3314 262° West 345 397 34,000  Level Albuquerque Center
Tue 11:28:28 PM 35.1736 -108.4608 263° West 343 395 34,000  Level Albuquerque Center
Tue 11:29:29 PM 35.1611 -108.5747 262° West 349 402 34,000  Level Albuquerque Center
Tue 11:30:30 PM 35.1469 -108.6869 261° West 349 402 34,000  Level Albuquerque Center
Tue 11:31:32 PM 35.1328 -108.8192 263° West 350 403 34,000  Level Albuquerque Center
Tue 11:32:33 PM 35.1194 -108.9325 262° West 351 404 34,000  Level Albuquerque Center
Tue 11:33:34 PM 35.1042 -109.0681 262° West 357 411 34,000  Level Albuquerque Center
Tue 11:34:35 PM 35.0892 -109.1828 261° West 357 411 34,000  Level Albuquerque Center
Tue 11:35:38 PM 35.0756 -109.3003 262° West 362 417 34,000  Level Albuquerque Center
Tue 11:36:38 PM 35.0594 -109.4358 262° West 362 417 34,000  Level Albuquerque Center
Tue 11:37:39 PM 35.0444 -109.5511 261° West 359 413 34,000  Level Albuquerque Center
Tue 11:38:40 PM 35.0306 -109.6681 262° West 361 415 34,000  Level Albuquerque Center
Tue 11:39:42 PM 35.0133 -109.8047 261° West 364 419 34,000  Level Albuquerque Center
Tue 11:40:43 PM 34.9981 -109.9197 261° West 362 417 34,000  Level Albuquerque Center
Tue 11:41:44 PM 34.9817 -110.0575 262° West 365 420 34,000  Level Albuquerque Center
Tue 11:42:45 PM 34.9683 -110.1769 262° West 371 427 34,000  Level Albuquerque Center
Tue 11:43:46 PM 34.9536 -110.2944 261° West 369 425 34,000  Level Albuquerque Center
Tue 11:44:47 PM 34.9344 -110.4333 260° West 371 427 34,000  Level Albuquerque Center
Tue 11:45:49 PM 34.9178 -110.5517 260° West 371 427 34,000  Level Albuquerque Center
Tue 11:46:50 PM 34.9006 -110.6703 260° West 371 427 34,000  Level Albuquerque Center
Tue 11:47:51 PM 34.8817 -110.7897 259° West 372 428 34,000  Level Albuquerque Center
Tue 11:48:52 PM 34.8661 -110.9172 262° West 378 435 34,000  Level Albuquerque Center
Tue 11:49:53 PM 34.8486 -111.0414 260° West 376 433 34,000  Level Albuquerque Center
Tue 11:50:54 PM 34.8294 -111.1947 261° West 381 438 34,000  Level Albuquerque Center
Tue 11:51:55 PM 34.8122 -111.3203 261° West 379 436 34,000  Level Albuquerque Center
Tue 11:52:57 PM 34.7944 -111.4469 260° West 380 437 34,000  Level Albuquerque Center
Tue 11:53:58 PM 34.7775 -111.5731 261° West 381 438 34,000  Level Albuquerque Center
Tue 11:54:59 PM 34.7592 -111.6994 260° West 382 440 34,000  Level Albuquerque Center
Tue 11:56:00 PM 34.7406 -111.8283 260° West 386 444 34,000  Level Albuquerque Center
Tue 11:57:01 PM 34.7225 -111.9567 260° West 388 447 34,000  Level Albuquerque Center
Tue 11:58:02 PM 34.7036 -112.0847 260° West 389 448 34,000  Level Albuquerque Center
Tue 11:59:03 PM 34.6850 -112.2144 260° West 390 449 34,000  Level Albuquerque Center
Wed 12:00:04 AM 34.6631 -112.3664 260° West 386 444 34,000  Level Albuquerque Center
Wed 12:01:05 AM 34.6464 -112.4839 260° West 383 441 34,000  Level Albuquerque Center
Wed 12:02:06 AM 34.6278 -112.6106 260° West 382 440 34,000  Level Albuquerque Center
Wed 12:03:07 AM 34.6086 -112.7389 260° West 385 443 34,000  Level Albuquerque Center
Wed 12:04:08 AM 34.5892 -112.8664 260° West 386 444 34,000  Level Albuquerque Center
Wed 12:05:09 AM 34.5689 -112.9972 259° West 392 451 34,000  Level Albuquerque Center
Wed 12:06:10 AM 34.5483 -113.1294 259° West 396 456 34,000  Level Albuquerque Center
Wed 12:07:11 AM 34.5283 -113.2622 260° West 400 460 34,000  Level Albuquerque Center
Wed 12:08:12 AM 34.5031 -113.4186 259° West 398 458 34,000  Level Albuquerque Center
Wed 12:09:13 AM 34.4819 -113.5533 259° West 403 464 34,000  Level Albuquerque Center
Wed 12:10:14 AM 34.4619 -113.6792 259° West 403 464 34,000  Level Albuquerque Center
Wed 12:11:14 AM 34.4406 -113.8131 259° West 404 465 34,000  Level Albuquerque Center
Wed 12:12:15 AM 34.4194 -113.9458 259° West 402 463 34,000  Level Albuquerque Center
Wed 12:13:16 AM 34.3981 -114.0781 259° West 401 461 34,000  Level Albuquerque Center
Wed 12:13:35 AM 34.3917 -114.1253 261° West 399 459 34,000  Level Los Angeles Center
Wed 12:14:37 AM 34.3700 -114.2597 259° West 406 467 34,000  Level Los Angeles Center
Wed 12:15:18 AM 34.3533 -114.3456 257° West 405 466 34,000 -98 Level Albuquerque Center
Wed 12:15:38 AM 34.3481 -114.3917 262° West 402 463 33,900 -74 Descending Los Angeles Center
Wed 12:16:39 AM 34.3267 -114.5244 259° West 402 463 33,900 49 Level Los Angeles Center
Wed 12:17:41 AM 34.3039 -114.6553 258° West 399 459 34,000 49 Climbing Los Angeles Center
Wed 12:18:42 AM 34.2781 -114.8167 259° West 407 468 34,000  Level Los Angeles Center
Wed 12:19:43 AM 34.2550 -114.9522 258° West 412 474 34,000 -49 Level Los Angeles Center
Wed 12:20:44 AM 34.2331 -115.0850 259° West 408 470 33,900  Descending Los Angeles Center
Wed 12:21:46 AM 34.2100 -115.2144 258° West 398 458 34,000 49 Climbing Los Angeles Center
Wed 12:22:47 AM 34.1875 -115.3431 258° West 393 452 34,000 -49 Level Los Angeles Center
Wed 12:23:48 AM 34.1656 -115.4719 258° West 394 453 33,900  Descending Los Angeles Center
Wed 12:24:49 AM 34.1436 -115.5978 258° West 387 445 34,000 49 Climbing Los Angeles Center
Wed 12:25:50 AM 34.1211 -115.7228 258° West 383 441 34,000 -195 Level Los Angeles Center
Wed 12:26:52 AM 34.1008 -115.8500 259° West 387 445 33,600 -780 Descending Los Angeles Center
Wed 12:27:53 AM 34.0778 -116.0019 260° West 386 444 32,400 -1,033 Descending Los Angeles Center
Wed 12:28:54 AM 34.0583 -116.1347 260° West 399 459 31,500 -934 Descending Los Angeles Center
Wed 12:29:55 AM 34.0381 -116.2689 260° West 406 467 30,500 -1,426 Descending Los Angeles Center
Wed 12:30:56 AM 34.0175 -116.4039 260° West 411 473 28,600 -2,115 Descending Los Angeles Center
Wed 12:31:57 AM 34.0017 -116.5367 262° West 405 466 26,200 -2,311 Descending Los Angeles Center
Wed 12:32:58 AM 33.9914 -116.6656 265° West 390 449 23,900 -2,244 Descending Los Angeles Center
Wed 12:34:00 AM 33.9478 -116.7803 245° Southwest 391 450 21,600 -2,146 Descending Los Angeles Center
Wed 12:35:01 AM 33.9436 -116.8992 268° West 366 421 19,500 -2,323 Descending Los Angeles Center
Wed 12:35:33 AM 33.9500 -116.9833 275° West 352 405 18,000 -1,546 Descending Southern California TRACON
Wed 12:36:38 AM 33.9500 -117.1000 270° West 325 374 17,000 -850 Descending Southern California TRACON
Wed 12:37:33 AM 33.9500 -117.2000 270° West 322 371 16,300 -783 Descending Southern California TRACON
Wed 12:38:33 AM 33.9333 -117.3167 260° West 325 374 15,500 -850 Descending Southern California TRACON
Wed 12:39:33 AM 33.9500 -117.4167 281° West 324 373 14,600 -1,000 Descending Southern California TRACON
Wed 12:40:33 AM 33.9833 -117.5167 292° West 306 352 13,500 -1,100 Descending Southern California TRACON
Wed 12:41:33 AM 34.0167 -117.6000 296° West 335 386 12,400 -952 Descending Southern California TRACON
Wed 12:42:39 AM 34.0000 -117.7000 259° West 216 249 11,500 -1,048 Descending Southern California TRACON
Wed 12:43:39 AM 34.0000 -117.7667 270° West 196 226 10,200 -1,550 Descending Southern California TRACON
Wed 12:44:39 AM 34.0000 -117.8333 270° West 207 238 8,400 -1,600 Descending Southern California TRACON
Wed 12:45:39 AM 33.9833 -117.9000 253° West 206 237 7,000 -1,105 Descending Southern California TRACON
Wed 12:46:33 AM 33.9833 -117.9667 270° West 202 232 6,300 -737 Descending Southern California TRACON
Wed 12:47:33 AM 33.9667 -118.0333 253° West 198 228 5,600 -744 Descending Southern California TRACON
Wed 12:48:34 AM 33.9667 -118.1000 270° West 195 224 4,800 -843 Descending Southern California TRACON
Wed 12:49:34 AM 33.9667 -118.1500 270° West 163 188 3,900 -865 Descending Southern California TRACON
Wed 12:50:18 AM 33.9575 -118.1875 254° West 168 193 3,300 -800 Descending Los Angeles Center
Wed 12:51:19 AM 33.9531 -118.2372 264° West 154 177 2,500 -787 Descending Los Angeles Center

Login

Don't have an account? Register now (free) for customized features, flight alerts, and more!